Time;durP1;ratioP1;P1;durP2;ratioP2;P2;SDS_P1;SDS_P2;PMS_P1;PMS_P2;Temp;Humidity;BMP_temperature;BMP_pressure;BME280_temperature;BME280_humidity;BME280_pressure;Samples;Min_cycle;Max_cycle;Signal;HPM_P1;HPM_P2
2021/10/10 00:00:00;;;;;;;6.43;4.97;;;;;;;;;;4989523;28;20203;-79
2021/10/10 00:02:29;;;;;;;8.82;4.93;;;;;;;;;;4975086;28;20219;-80
2021/10/10 00:04:56;;;;;;;7.53;5.30;;;;;;;;;;4976524;28;20200;-79
2021/10/10 00:07:24;;;;;;;5.93;5.40;;;;;;;;;;4979321;28;20232;-79
2021/10/10 00:09:51;;;;;;;7.70;5.35;;;;;;;;;;4996025;28;20199;-79
2021/10/10 00:12:18;;;;;;;6.60;4.75;;;;;;;;;;4998626;28;20204;-79
2021/10/10 00:14:46;;;;;;;6.00;4.47;;;;;;;;;;4998814;28;20222;-79
2021/10/10 00:17:13;;;;;;;5.63;4.28;;;;;;;;;;4998530;28;20854;-79
2021/10/10 00:19:42;;;;;;;5.13;4.55;;;;;;;;;;4982886;28;20207;-79
2021/10/10 00:22:09;;;;;;;4.93;3.92;;;;;;;;;;4978914;28;20259;-79
2021/10/10 00:24:37;;;;;;;4.20;3.80;;;;;;;;;;4978051;28;20200;-79
2021/10/10 00:27:04;;;;;;;4.10;3.42;;;;;;;;;;4978939;28;20224;-79
2021/10/10 00:29:32;;;;;;;4.63;3.70;;;;;;;;;;4979429;28;20592;-78
2021/10/10 00:32:01;;;;;;;4.85;4.20;;;;;;;;;;4979518;28;20232;-81
2021/10/10 00:34:29;;;;;;;5.70;4.35;;;;;;;;;;4979769;28;20208;-79
2021/10/10 00:36:58;;;;;;;4.85;4.00;;;;;;;;;;4981408;28;20216;-79
2021/10/10 00:39:26;;;;;;;4.70;4.30;;;;;;;;;;4998558;28;20204;-80
2021/10/10 00:41:54;;;;;;;4.35;3.80;;;;;;;;;;4997641;28;20200;-79
2021/10/10 00:44:21;;;;;;;4.63;3.83;;;;;;;;;;4998517;28;20574;-79
2021/10/10 00:46:49;;;;;;;4.32;3.92;;;;;;;;;;4998515;28;20211;-78
2021/10/10 00:49:16;;;;;;;4.07;3.67;;;;;;;;;;4996681;28;20821;-78
2021/10/10 00:51:46;;;;;;;5.93;4.47;;;;;;;;;;4997329;28;20232;-79
2021/10/10 00:54:16;;;;;;;5.45;4.95;;;;;;;;;;4998253;28;20214;-79
2021/10/10 00:56:44;;;;;;;6.10;5.50;;;;;;;;;;4997740;28;20204;-79
2021/10/10 00:59:14;;;;;;;6.18;5.57;;;;;;;;;;4996337;28;20210;-79
2021/10/10 01:01:43;;;;;;;5.18;4.57;;;;;;;;;;4998035;28;20230;-79
2021/10/10 01:04:10;;;;;;;6.25;5.55;;;;;;;;;;4997976;28;20692;-79
2021/10/10 01:06:37;;;;;;;7.78;5.88;;;;;;;;;;4997584;28;20231;-79
2021/10/10 01:09:05;;;;;;;6.13;5.38;;;;;;;;;;4988512;28;20207;-79
2021/10/10 01:11:34;;;;;;;7.55;5.63;;;;;;;;;;4978159;28;20230;-79
2021/10/10 01:14:02;;;;;;;8.75;6.18;;;;;;;;;;4977908;28;20675;-78
2021/10/10 01:16:29;;;;;;;7.03;6.32;;;;;;;;;;4989523;28;20682;-78
2021/10/10 01:18:58;;;;;;;6.22;5.65;;;;;;;;;;4997191;28;20229;-79
2021/10/10 01:21:27;;;;;;;6.10;5.50;;;;;;;;;;4997327;28;20200;-79
2021/10/10 01:23:54;;;;;;;8.80;6.57;;;;;;;;;;4997206;28;20226;-79
2021/10/10 01:26:22;;;;;;;7.93;5.78;;;;;;;;;;4986622;28;20208;-78
2021/10/10 01:28:50;;;;;;;7.82;6.03;;;;;;;;;;4976671;28;20239;-78
2021/10/10 01:31:18;;;;;;;7.25;5.40;;;;;;;;;;4980119;28;20224;-78
2021/10/10 01:33:46;;;;;;;6.40;5.80;;;;;;;;;;4996585;28;20208;-79
2021/10/10 01:36:15;;;;;;;6.88;5.30;;;;;;;;;;4987065;28;20675;-78
2021/10/10 01:38:44;;;;;;;6.70;6.05;;;;;;;;;;4977593;28;20607;-79
2021/10/10 01:41:13;;;;;;;8.32;6.80;;;;;;;;;;4977628;28;20208;-79
2021/10/10 01:43:41;;;;;;;7.28;6.18;;;;;;;;;;4976859;28;20204;-79
2021/10/10 01:46:08;;;;;;;5.70;4.88;;;;;;;;;;4985173;28;20204;-78
2021/10/10 01:48:36;;;;;;;5.82;4.38;;;;;;;;;;4996369;28;20227;-79
2021/10/10 01:51:04;;;;;;;4.55;3.95;;;;;;;;;;4995969;28;20702;-79
2021/10/10 01:53:31;;;;;;;5.20;4.50;;;;;;;;;;4996055;28;20270;-79
2021/10/10 01:56:00;;;;;;;4.13;3.42;;;;;;;;;;4989891;28;20407;-78
2021/10/10 01:58:27;;;;;;;4.25;3.88;;;;;;;;;;4976942;28;20228;-80
2021/10/10 02:00:55;;;;;;;5.95;4.35;;;;;;;;;;4977095;28;20213;-79
2021/10/10 02:03:22;;;;;;;5.22;4.72;;;;;;;;;;4976526;28;20204;-79
2021/10/10 02:05:50;;;;;;;4.30;3.90;;;;;;;;;;4981462;28;20198;-79
2021/10/10 02:08:17;;;;;;;5.78;4.50;;;;;;;;;;4995850;28;20266;-79
2021/10/10 02:10:46;;;;;;;5.28;4.53;;;;;;;;;;4996187;28;20207;-79
2021/10/10 02:13:15;;;;;;;5.82;4.57;;;;;;;;;;4986792;28;20220;-79
2021/10/10 02:15:42;;;;;;;4.10;3.70;;;;;;;;;;4976960;28;20193;-79
2021/10/10 02:18:10;;;;;;;8.50;4.22;;;;;;;;;;4976770;28;20237;-79
2021/10/10 02:20:37;;;;;;;3.55;3.08;;;;;;;;;;4976491;28;20208;-77
2021/10/10 02:23:05;;;;;;;4.70;4.25;;;;;;;;;;4994511;28;20724;-77
2021/10/10 02:25:32;;;;;;;5.15;4.65;;;;;;;;;;4994557;28;20199;-80
2021/10/10 02:27:59;;;;;;;4.75;4.20;;;;;;;;;;4994837;28;20224;-78
2021/10/10 02:30:28;;;;;;;4.10;3.70;;;;;;;;;;4994274;28;20218;-78
2021/10/10 02:32:56;;;;;;;4.18;3.78;;;;;;;;;;4956122;29;20235;-79
2021/10/10 02:35:23;;;;;;;5.85;4.72;;;;;;;;;;4956016;29;20205;-78
2021/10/10 02:37:51;;;;;;;5.15;4.53;;;;;;;;;;4956271;29;20738;-78
2021/10/10 02:40:18;;;;;;;6.30;5.70;;;;;;;;;;4956213;29;20209;-79
2021/10/10 02:42:46;;;;;;;6.35;5.75;;;;;;;;;;4984873;28;20193;-78
2021/10/10 02:45:13;;;;;;;5.50;5.00;;;;;;;;;;4975466;28;20208;-78
2021/10/10 02:47:42;;;;;;;5.15;4.68;;;;;;;;;;4975538;28;20228;-79
2021/10/10 02:50:10;;;;;;;6.85;6.15;;;;;;;;;;4983557;28;20228;-79
2021/10/10 02:52:38;;;;;;;6.53;5.88;;;;;;;;;;4994342;28;20236;-78
2021/10/10 02:55:07;;;;;;;6.57;5.88;;;;;;;;;;4994450;28;20215;-78
2021/10/10 02:57:34;;;;;;;5.40;4.90;;;;;;;;;;4994728;28;20231;-78
2021/10/10 03:00:02;;;;;;;5.10;4.60;;;;;;;;;;4988427;28;20200;-79
2021/10/10 03:02:30;;;;;;;4.32;3.92;;;;;;;;;;4975938;28;20231;-78
2021/10/10 03:04:59;;;;;;;5.40;4.90;;;;;;;;;;4975655;28;20204;-79
2021/10/10 03:07:26;;;;;;;5.28;4.78;;;;;;;;;;4983988;28;20231;-79
2021/10/10 03:09:54;;;;;;;6.03;4.75;;;;;;;;;;4994451;28;20203;-78
2021/10/10 03:12:21;;;;;;;9.05;5.80;;;;;;;;;;4994257;28;20235;-79
2021/10/10 03:14:48;;;;;;;6.22;5.00;;;;;;;;;;4995525;28;20210;-79
2021/10/10 03:17:16;;;;;;;8.48;5.90;;;;;;;;;;4976783;28;20621;-79
2021/10/10 03:19:43;;;;;;;5.85;5.35;;;;;;;;;;4975859;28;20569;-79
2021/10/10 03:22:12;;;;;;;6.07;5.45;;;;;;;;;;4975165;28;20207;-78
2021/10/10 03:24:39;;;;;;;7.07;5.25;;;;;;;;;;4985345;28;20200;-78
2021/10/10 03:27:07;;;;;;;7.47;5.93;;;;;;;;;;4995289;28;20224;-78
2021/10/10 03:29:34;;;;;;;5.65;5.15;;;;;;;;;;4995041;28;20239;-77
2021/10/10 03:32:02;;;;;;;8.60;7.28;;;;;;;;;;4994759;28;20596;-79
2021/10/10 03:34:31;;;;;;;9.13;8.07;;;;;;;;;;4986292;28;20204;-79
2021/10/10 03:36:58;;;;;;;10.57;9.40;;;;;;;;;;4975785;28;20240;-79
2021/10/10 03:39:27;;;;;;;14.02;10.40;;;;;;;;;;4975703;28;20208;-79
2021/10/10 03:41:54;;;;;;;11.27;8.80;;;;;;;;;;4978577;28;20586;-79
2021/10/10 03:44:22;;;;;;;10.15;8.63;;;;;;;;;;4972638;28;20197;-78
2021/10/10 03:46:49;;;;;;;10.73;8.18;;;;;;;;;;4975832;28;20200;-79
2021/10/10 03:49:16;;;;;;;13.55;9.52;;;;;;;;;;4979120;28;20216;-79
2021/10/10 03:51:44;;;;;;;8.07;7.13;;;;;;;;;;4978486;28;20649;-79
2021/10/10 03:55:03;;;;;;;9.93;7.88;;;;;;;;;;4981460;28;20306;-79
2021/10/10 03:57:31;;;;;;;8.35;7.55;;;;;;;;;;4998099;28;20223;-78
2021/10/10 04:00:00;;;;;;;10.55;9.25;;;;;;;;;;4998059;28;20208;-79
2021/10/10 04:02:28;;;;;;;8.63;7.13;;;;;;;;;;4998838;28;20576;-78
2021/10/10 04:04:55;;;;;;;8.20;7.40;;;;;;;;;;4989094;28;20193;-80
2021/10/10 04:07:23;;;;;;;8.20;7.10;;;;;;;;;;4978316;28;20644;-79
2021/10/10 04:09:51;;;;;;;7.00;6.32;;;;;;;;;;4978792;28;20200;-79
2021/10/10 04:12:19;;;;;;;6.93;6.22;;;;;;;;;;4978719;28;20200;-78
2021/10/10 04:14:48;;;;;;;7.95;7.07;;;;;;;;;;4985773;28;20196;-78
2021/10/10 04:17:15;;;;;;;7.68;6.68;;;;;;;;;;4998148;28;20234;-78
2021/10/10 04:19:42;;;;;;;8.35;7.50;;;;;;;;;;4997797;28;20211;-79
2021/10/10 04:22:10;;;;;;;7.38;6.45;;;;;;;;;;4997400;28;20210;-79
2021/10/10 04:24:37;;;;;;;9.15;6.63;;;;;;;;;;4991680;28;20203;-78
2021/10/10 04:27:05;;;;;;;7.88;6.07;;;;;;;;;;4978565;28;20232;-79
2021/10/10 04:29:32;;;;;;;5.90;5.30;;;;;;;;;;4977567;28;20204;-78
2021/10/10 04:32:01;;;;;;;6.47;5.85;;;;;;;;;;4977777;28;20207;-79
2021/10/10 04:34:29;;;;;;;6.95;5.63;;;;;;;;;;4995751;28;20220;-78
2021/10/10 04:36:57;;;;;;;6.20;5.65;;;;;;;;;;4997694;28;20702;-79
2021/10/10 04:39:25;;;;;;;6.97;6.25;;;;;;;;;;4997505;28;20230;-79
2021/10/10 04:41:52;;;;;;;8.00;6.32;;;;;;;;;;4997458;28;20203;-79
2021/10/10 04:44:19;;;;;;;8.05;6.43;;;;;;;;;;4980170;28;20203;-78
2021/10/10 04:46:47;;;;;;;9.52;6.93;;;;;;;;;;4977462;28;20208;-78
2021/10/10 04:49:16;;;;;;;7.32;6.53;;;;;;;;;;4977768;28;20204;-78
2021/10/10 04:51:43;;;;;;;7.55;6.00;;;;;;;;;;4976850;28;20236;-78
2021/10/10 04:54:11;;;;;;;9.02;7.13;;;;;;;;;;4992299;28;20220;-78
2021/10/10 04:56:40;;;;;;;9.55;8.60;;;;;;;;;;4997413;28;20234;-79
2021/10/10 04:59:09;;;;;;;11.27;6.97;;;;;;;;;;4997369;28;20212;-78
2021/10/10 05:01:36;;;;;;;8.77;7.00;;;;;;;;;;4997541;28;20207;-79
2021/10/10 05:04:04;;;;;;;6.70;6.00;;;;;;;;;;4982638;28;20201;-78
2021/10/10 05:06:33;;;;;;;7.10;6.45;;;;;;;;;;4977870;28;20283;-78
2021/10/10 05:09:00;;;;;;;6.55;5.35;;;;;;;;;;4977909;28;20591;-79
2021/10/10 05:11:28;;;;;;;9.07;7.07;;;;;;;;;;4977698;28;20291;-78
2021/10/10 05:13:55;;;;;;;7.78;5.78;;;;;;;;;;4990352;28;20215;-78
2021/10/10 05:16:23;;;;;;;6.50;5.80;;;;;;;;;;4997262;28;20230;-78
2021/10/10 05:18:50;;;;;;;5.88;5.28;;;;;;;;;;4997124;28;20223;-79
2021/10/10 05:21:18;;;;;;;6.78;6.18;;;;;;;;;;4997141;28;20223;-78
2021/10/10 05:23:46;;;;;;;8.13;7.18;;;;;;;;;;4985812;28;20722;-77
2021/10/10 05:26:14;;;;;;;6.28;5.65;;;;;;;;;;4977042;28;20581;-77
2021/10/10 05:28:41;;;;;;;6.57;5.97;;;;;;;;;;4977650;28;20224;-77
2021/10/10 05:31:09;;;;;;;8.07;7.28;;;;;;;;;;4977299;28;20212;-78
2021/10/10 05:33:37;;;;;;;7.82;6.68;;;;;;;;;;4986407;28;20219;-78
2021/10/10 05:36:05;;;;;;;7.85;6.70;;;;;;;;;;4996828;28;20207;-78
2021/10/10 05:38:33;;;;;;;7.55;6.63;;;;;;;;;;4996093;28;20614;-78
2021/10/10 05:41:02;;;;;;;8.27;7.43;;;;;;;;;;4994892;28;20214;-78
2021/10/10 05:43:29;;;;;;;7.55;5.90;;;;;;;;;;4977533;28;20262;-78
2021/10/10 05:45:57;;;;;;;7.68;6.93;;;;;;;;;;4977216;28;20211;-79
2021/10/10 05:48:25;;;;;;;9.73;8.73;;;;;;;;;;4976359;28;20311;-79
2021/10/10 05:50:52;;;;;;;9.48;7.68;;;;;;;;;;4976394;28;20609;-77
2021/10/10 05:53:20;;;;;;;7.07;6.38;;;;;;;;;;4995789;28;20226;-79
2021/10/10 05:55:47;;;;;;;7.95;6.75;;;;;;;;;;4995294;28;20689;-79
2021/10/10 05:58:20;;;;;;;6.93;6.22;;;;;;;;;;4995587;28;20219;-78
2021/10/10 06:00:47;;;;;;;7.43;6.18;;;;;;;;;;4996039;28;20294;-79
2021/10/10 06:03:15;;;;;;;9.10;7.65;;;;;;;;;;4976650;28;20207;-79
2021/10/10 06:05:45;;;;;;;10.60;7.82;;;;;;;;;;4976292;28;20581;-79
2021/10/10 06:08:12;;;;;;;7.07;6.38;;;;;;;;;;4976374;28;20228;-77
2021/10/10 06:10:40;;;;;;;6.53;5.68;;;;;;;;;;4976116;28;20200;-79
2021/10/10 06:13:08;;;;;;;4.78;4.32;;;;;;;;;;4994523;28;20199;-79
2021/10/10 06:15:37;;;;;;;5.03;4.57;;;;;;;;;;4995983;28;20253;-79
2021/10/10 06:18:09;;;;;;;4.68;4.28;;;;;;;;;;4996340;28;20238;-78
2021/10/10 06:20:38;;;;;;;4.28;3.90;;;;;;;;;;4990843;28;20200;-79
2021/10/10 06:23:05;;;;;;;5.68;5.13;;;;;;;;;;4976608;28;20215;-79
2021/10/10 06:25:33;;;;;;;6.05;4.78;;;;;;;;;;4975447;28;20227;-77
2021/10/10 06:28:00;;;;;;;7.43;5.00;;;;;;;;;;4976532;28;20232;-79
2021/10/10 06:30:28;;;;;;;3.78;3.22;;;;;;;;;;4975686;28;20205;-79
2021/10/10 06:32:57;;;;;;;5.38;4.82;;;;;;;;;;4976448;28;20223;-78
2021/10/10 06:35:25;;;;;;;4.80;4.38;;;;;;;;;;4976346;28;20238;-78
2021/10/10 06:37:52;;;;;;;5.00;4.57;;;;;;;;;;4975858;28;20224;-78
2021/10/10 06:40:20;;;;;;;4.72;4.07;;;;;;;;;;4991208;28;20200;-78
2021/10/10 06:42:47;;;;;;;4.47;4.05;;;;;;;;;;4990692;28;20615;-77
2021/10/10 06:45:15;;;;;;;6.38;5.78;;;;;;;;;;4978753;28;20279;-78
2021/10/10 06:47:42;;;;;;;7.97;7.20;;;;;;;;;;4975235;28;20777;-77
2021/10/10 06:50:11;;;;;;;10.55;9.23;;;;;;;;;;4972006;28;20208;-77
2021/10/10 06:52:39;;;;;;;7.80;7.00;;;;;;;;;;4957816;28;20237;-78
2021/10/10 06:55:07;;;;;;;6.65;5.97;;;;;;;;;;4956172;29;20228;-78
2021/10/10 06:57:34;;;;;;;8.32;6.22;;;;;;;;;;4956523;29;20243;-78
2021/10/10 07:00:02;;;;;;;5.88;5.03;;;;;;;;;;4961505;28;20205;-76
2021/10/10 07:02:30;;;;;;;6.75;5.70;;;;;;;;;;4975280;28;20200;-78
2021/10/10 07:04:58;;;;;;;5.90;5.40;;;;;;;;;;4956341;29;20581;-79
2021/10/10 07:07:27;;;;;;;6.32;5.78;;;;;;;;;;4956089;29;20225;-78
2021/10/10 07:09:54;;;;;;;7.28;6.30;;;;;;;;;;4956298;28;20244;-78
2021/10/10 07:12:22;;;;;;;5.65;4.93;;;;;;;;;;4956494;28;20216;-78
2021/10/10 07:14:50;;;;;;;6.85;6.22;;;;;;;;;;4956269;28;20232;-78
2021/10/10 07:17:18;;;;;;;6.07;5.45;;;;;;;;;;4961066;29;20221;-78
2021/10/10 07:19:50;;;;;;;7.35;6.05;;;;;;;;;;4960792;28;20212;-79
2021/10/10 07:22:27;;;;;;;6.50;5.70;;;;;;;;;;4961162;28;20208;-78
2021/10/10 07:25:07;;;;;;;8.73;7.82;;;;;;;;;;4960330;29;20205;-78
2021/10/10 07:27:35;;;;;;;7.72;7.03;;;;;;;;;;4978548;28;20223;-77
2021/10/10 07:30:05;;;;;;;8.00;7.20;;;;;;;;;;4979659;28;20634;-79
2021/10/10 07:32:33;;;;;;;7.70;6.78;;;;;;;;;;4979349;28;20193;-78
2021/10/10 07:35:01;;;;;;;7.05;6.25;;;;;;;;;;4982403;28;20705;-79
2021/10/10 07:37:29;;;;;;;7.35;6.65;;;;;;;;;;4979682;28;20635;-86
2021/10/10 07:39:57;;;;;;;6.88;6.28;;;;;;;;;;4978405;28;20188;-80
2021/10/10 07:42:25;;;;;;;7.50;6.75;;;;;;;;;;4979090;28;20215;-77
2021/10/10 07:44:54;;;;;;;6.97;6.28;;;;;;;;;;4990001;28;20196;-79
2021/10/10 07:47:46;;;;;;;9.25;7.85;;;;;;;;;;4980548;28;20224;-77
2021/10/10 07:50:14;;;;;;;7.35;6.63;;;;;;;;;;4991865;28;21912;-79
2021/10/10 07:52:42;;;;;;;7.43;6.45;;;;;;;;;;4978300;28;20256;-78
2021/10/10 07:55:11;;;;;;;6.15;5.55;;;;;;;;;;4979249;28;20232;-78
2021/10/10 07:57:39;;;;;;;7.75;6.95;;;;;;;;;;4989790;28;20224;-79
2021/10/10 08:00:09;;;;;;;6.85;5.85;;;;;;;;;;4978504;28;20204;-79
2021/10/10 08:02:54;;;;;;;5.85;5.25;;;;;;;;;;4978992;28;20208;-78
2021/10/10 08:05:23;;;;;;;7.20;6.50;;;;;;;;;;4957456;29;20191;-77
2021/10/10 08:07:51;;;;;;;7.15;6.45;;;;;;;;;;4964628;28;20212;-77
2021/10/10 08:10:21;;;;;;;8.13;7.32;;;;;;;;;;4976513;28;20219;-78
2021/10/10 08:12:49;;;;;;;8.85;7.82;;;;;;;;;;4977077;28;20189;-78
2021/10/10 08:15:17;;;;;;;6.85;6.20;;;;;;;;;;4976801;28;20679;-78
2021/10/10 08:17:44;;;;;;;7.00;6.30;;;;;;;;;;4976739;28;20243;-79
2021/10/10 08:20:12;;;;;;;14.70;6.53;;;;;;;;;;4976919;28;20211;-79
2021/10/10 08:22:40;;;;;;;8.23;6.90;;;;;;;;;;4976717;28;20214;-77
2021/10/10 08:25:11;;;;;;;7.50;6.80;;;;;;;;;;4976976;28;20280;-77
2021/10/10 08:27:42;;;;;;;8.93;5.88;;;;;;;;;;4974871;28;20220;-78
2021/10/10 08:30:13;;;;;;;8.40;7.32;;;;;;;;;;4977550;28;20694;-78
2021/10/10 08:32:43;;;;;;;8.02;6.80;;;;;;;;;;4976605;28;20200;-78
2021/10/10 08:35:11;;;;;;;8.35;6.75;;;;;;;;;;4976601;28;20220;-78
2021/10/10 08:37:38;;;;;;;8.75;7.95;;;;;;;;;;4990242;28;20215;-78
2021/10/10 08:40:10;;;;;;;7.20;6.57;;;;;;;;;;4996139;28;20204;-78
2021/10/10 08:42:42;;;;;;;6.47;5.85;;;;;;;;;;4996063;28;20199;-78
2021/10/10 08:45:13;;;;;;;6.57;5.72;;;;;;;;;;4985777;28;20219;-79
2021/10/10 08:47:43;;;;;;;8.85;7.93;;;;;;;;;;4976770;28;20232;-78
2021/10/10 08:50:16;;;;;;;9.40;6.78;;;;;;;;;;4976048;28;20652;-79
2021/10/10 08:52:45;;;;;;;6.57;6.00;;;;;;;;;;4976065;28;20236;-79
2021/10/10 08:55:12;;;;;;;8.07;7.38;;;;;;;;;;4976279;28;20208;-78
2021/10/10 08:57:41;;;;;;;8.98;7.72;;;;;;;;;;4981481;28;20215;-78
2021/10/10 09:00:15;;;;;;;10.68;9.43;;;;;;;;;;4994971;28;20200;-78
2021/10/10 09:02:46;;;;;;;8.95;8.15;;;;;;;;;;4996085;28;20184;-79
2021/10/10 09:05:14;;;;;;;7.75;6.97;;;;;;;;;;4996286;28;20188;-79
2021/10/10 09:07:43;;;;;;;7.68;6.93;;;;;;;;;;4983375;28;20224;-81
2021/10/10 09:10:24;;;;;;;7.82;6.97;;;;;;;;;;4977325;28;20188;-80
2021/10/10 09:13:04;;;;;;;7.15;5.82;;;;;;;;;;4977752;28;20587;-81
2021/10/10 09:15:31;;;;;;;7.78;7.00;;;;;;;;;;4977670;28;20204;-81
2021/10/10 09:18:01;;;;;;;6.55;6.05;;;;;;;;;;4977943;28;20228;-80
2021/10/10 09:20:32;;;;;;;6.90;6.20;;;;;;;;;;4992955;28;20203;-80
2021/10/10 09:23:00;;;;;;;8.05;7.18;;;;;;;;;;4997255;28;20552;-80
2021/10/10 09:25:29;;;;;;;8.05;6.93;;;;;;;;;;4988011;28;20201;-81
2021/10/10 09:28:04;;;;;;;7.05;6.30;;;;;;;;;;4977176;28;20228;-80
2021/10/10 09:30:48;;;;;;;7.60;6.90;;;;;;;;;;4986908;28;20187;-81
2021/10/10 09:33:16;;;;;;;7.30;6.60;;;;;;;;;;4989239;28;20197;-81
2021/10/10 09:35:44;;;;;;;6.80;6.20;;;;;;;;;;4977549;28;20653;-82
2021/10/10 09:38:15;;;;;;;6.97;6.35;;;;;;;;;;4976923;28;20227;-79
2021/10/10 09:40:49;;;;;;;5.88;5.38;;;;;;;;;;4978215;28;20192;-79
2021/10/10 09:43:18;;;;;;;9.82;8.82;;;;;;;;;;4977235;28;20299;-80
2021/10/10 09:45:54;;;;;;;8.05;7.25;;;;;;;;;;4977750;28;20188;-80
2021/10/10 09:48:31;;;;;;;8.30;7.50;;;;;;;;;;4977695;28;20231;-81
2021/10/10 09:50:59;;;;;;;6.35;5.75;;;;;;;;;;4977542;28;20686;-79
2021/10/10 09:53:34;;;;;;;7.28;6.30;;;;;;;;;;4976349;28;20189;-78
2021/10/10 09:56:07;;;;;;;8.30;7.38;;;;;;;;;;4975906;28;20208;-79
2021/10/10 09:58:40;;;;;;;5.57;5.07;;;;;;;;;;4987778;28;20223;-80
2021/10/10 10:01:15;;;;;;;6.20;5.60;;;;;;;;;;4994369;28;20188;-78
2021/10/10 10:04:01;;;;;;;6.40;5.80;;;;;;;;;;4976760;28;20200;-78
2021/10/10 10:06:31;;;;;;;5.15;4.75;;;;;;;;;;4977087;28;20739;-81
2021/10/10 10:09:02;;;;;;;4.75;4.35;;;;;;;;;;4976962;28;20220;-80
2021/10/10 10:11:32;;;;;;;4.70;4.10;;;;;;;;;;4977276;28;20215;-80
2021/10/10 10:14:04;;;;;;;5.10;4.50;;;;;;;;;;4977143;28;20188;-80
2021/10/10 10:16:33;;;;;;;6.70;5.35;;;;;;;;;;4977119;28;20295;-79
2021/10/10 10:19:02;;;;;;;5.65;5.13;;;;;;;;;;4976930;28;20220;-81
2021/10/10 10:21:31;;;;;;;6.00;5.45;;;;;;;;;;4976825;28;20196;-81
2021/10/10 10:24:01;;;;;;;5.75;5.13;;;;;;;;;;4976656;28;20196;-79
2021/10/10 10:26:31;;;;;;;6.90;6.15;;;;;;;;;;4976947;28;20203;-80
2021/10/10 10:29:03;;;;;;;6.55;5.88;;;;;;;;;;4986667;28;20706;-81
2021/10/10 10:31:31;;;;;;;6.53;5.93;;;;;;;;;;4995859;28;20234;-80
2021/10/10 10:34:20;;;;;;;5.43;4.85;;;;;;;;;;4989168;28;20867;-79
2021/10/10 10:36:56;;;;;;;4.90;4.50;;;;;;;;;;4975417;28;20228;-79
2021/10/10 10:39:42;;;;;;;5.88;5.25;;;;;;;;;;4975813;28;20184;-80
2021/10/10 10:42:11;;;;;;;6.75;6.15;;;;;;;;;;4975788;28;20200;-81
2021/10/10 10:44:43;;;;;;;6.22;5.63;;;;;;;;;;4975499;28;20218;-80
2021/10/10 10:47:13;;;;;;;9.00;6.80;;;;;;;;;;4979068;28;20231;-80
2021/10/10 10:50:04;;;;;;;8.13;7.43;;;;;;;;;;4975397;28;20553;-80
2021/10/10 10:52:33;;;;;;;8.60;7.82;;;;;;;;;;4974847;28;20231;-80
2021/10/10 10:55:17;;;;;;;8.88;7.97;;;;;;;;;;4974852;28;20635;-80
2021/10/10 10:57:51;;;;;;;8.38;7.57;;;;;;;;;;4975513;28;20224;-81
2021/10/10 11:00:29;;;;;;;7.47;6.78;;;;;;;;;;4975739;28;20647;-79
2021/10/10 11:03:09;;;;;;;5.85;5.38;;;;;;;;;;4975960;28;20192;-80
2021/10/10 11:05:43;;;;;;;4.82;4.43;;;;;;;;;;4975641;28;20199;-81
2021/10/10 11:08:35;;;;;;;4.90;4.40;;;;;;;;;;4993235;28;20308;-81
2021/10/10 11:11:19;;;;;;;4.40;4.00;;;;;;;;;;4994725;28;20210;-79
2021/10/10 11:13:53;;;;;;;6.15;4.07;;;;;;;;;;4994224;28;20188;-79
2021/10/10 11:16:29;;;;;;;3.53;3.22;;;;;;;;;;4993993;28;20184;-80
2021/10/10 11:18:59;;;;;;;3.55;3.25;;;;;;;;;;4981667;28;20595;-79
2021/10/10 11:21:29;;;;;;;2.78;2.60;;;;;;;;;;4972702;28;20679;-80
2021/10/10 11:24:00;;;;;;;3.13;2.90;;;;;;;;;;4975791;28;20193;-80
2021/10/10 11:26:28;;;;;;;3.10;2.80;;;;;;;;;;4975090;28;20211;-80
2021/10/10 11:28:58;;;;;;;3.30;3.00;;;;;;;;;;4976273;28;20227;-80
2021/10/10 11:31:29;;;;;;;4.50;4.13;;;;;;;;;;4975886;28;20189;-80
2021/10/10 11:33:58;;;;;;;3.25;2.95;;;;;;;;;;4975387;28;20575;-80
2021/10/10 11:36:36;;;;;;;3.47;3.17;;;;;;;;;;4976800;28;20231;-80
2021/10/10 11:39:06;;;;;;;3.22;2.92;;;;;;;;;;4984930;28;20316;-79
2021/10/10 11:41:39;;;;;;;3.63;3.33;;;;;;;;;;4974369;28;20694;-79
2021/10/10 11:44:09;;;;;;;3.55;3.25;;;;;;;;;;4974649;28;20188;-80
2021/10/10 11:47:01;;;;;;;3.00;2.80;;;;;;;;;;4974565;28;20586;-79
2021/10/10 11:49:37;;;;;;;3.70;3.40;;;;;;;;;;4968899;28;20204;-79
2021/10/10 11:52:14;;;;;;;4.22;3.42;;;;;;;;;;4974137;28;20714;-79
2021/10/10 11:54:42;;;;;;;3.92;3.50;;;;;;;;;;4974548;28;20616;-79
2021/10/10 11:57:15;;;;;;;4.50;3.95;;;;;;;;;;4973968;28;20299;-78
2021/10/10 11:59:53;;;;;;;3.90;3.55;;;;;;;;;;4974464;28;20623;-79
2021/10/10 12:02:25;;;;;;;3.63;3.33;;;;;;;;;;4977022;28;20188;-78
2021/10/10 12:05:03;;;;;;;3.10;2.90;;;;;;;;;;4977916;28;20616;-79
2021/10/10 12:07:31;;;;;;;3.65;2.95;;;;;;;;;;4978452;28;20220;-80
2021/10/10 12:09:59;;;;;;;3.92;3.20;;;;;;;;;;4978742;28;20683;-80
2021/10/10 12:12:27;;;;;;;3.75;3.28;;;;;;;;;;4978776;28;20214;-80
2021/10/10 12:14:56;;;;;;;2.60;2.40;;;;;;;;;;4977885;28;20308;-80
2021/10/10 12:17:38;;;;;;;2.63;2.42;;;;;;;;;;4978850;28;20315;-80
2021/10/10 12:20:25;;;;;;;3.45;2.80;;;;;;;;;;4978840;28;20208;-80
2021/10/10 12:22:56;;;;;;;2.80;2.50;;;;;;;;;;4979257;28;20193;-80
2021/10/10 12:25:27;;;;;;;2.28;2.08;;;;;;;;;;4978892;28;20197;-79
2021/10/10 12:28:02;;;;;;;2.58;2.38;;;;;;;;;;4978780;28;20221;-80
2021/10/10 12:30:33;;;;;;;2.40;2.20;;;;;;;;;;4979162;28;20215;-79
2021/10/10 12:33:25;;;;;;;2.22;2.00;;;;;;;;;;4978626;28;20668;-80
2021/10/10 12:35:58;;;;;;;3.10;2.78;;;;;;;;;;4978654;28;20197;-80
2021/10/10 12:38:31;;;;;;;2.05;1.85;;;;;;;;;;4979578;28;20675;-80
2021/10/10 12:41:00;;;;;;;2.90;2.60;;;;;;;;;;4978670;28;20193;-80
2021/10/10 12:43:39;;;;;;;2.88;2.47;;;;;;;;;;4978514;28;20666;-80
2021/10/10 12:46:07;;;;;;;2.17;1.98;;;;;;;;;;4978527;28;20224;-80
2021/10/10 12:48:36;;;;;;;2.40;2.20;;;;;;;;;;4977632;28;20313;-79
2021/10/10 12:51:04;;;;;;;2.40;2.30;;;;;;;;;;4978358;28;20220;-80
2021/10/10 12:53:33;;;;;;;2.72;2.53;;;;;;;;;;4978288;28;20308;-80
2021/10/10 12:56:18;;;;;;;2.00;1.85;;;;;;;;;;4978360;28;20189;-80
2021/10/10 12:58:48;;;;;;;2.60;2.40;;;;;;;;;;4977892;28;20717;-79
2021/10/10 13:01:15;;;;;;;2.70;2.50;;;;;;;;;;4978179;28;20376;-80
2021/10/10 13:03:47;;;;;;;2.67;2.45;;;;;;;;;;4977684;28;20243;-80
2021/10/10 13:06:16;;;;;;;2.22;2.03;;;;;;;;;;4977438;28;20559;-79
2021/10/10 13:08:50;;;;;;;2.45;2.22;;;;;;;;;;4977879;28;20702;-80
2021/10/10 13:11:19;;;;;;;2.22;2.03;;;;;;;;;;4978242;28;20599;-79
2021/10/10 13:13:48;;;;;;;2.05;1.88;;;;;;;;;;4977201;28;20280;-80
2021/10/10 13:16:16;;;;;;;1.90;1.80;;;;;;;;;;4977405;28;20211;-80
2021/10/10 13:18:45;;;;;;;1.70;1.60;;;;;;;;;;4977361;28;20233;-79
2021/10/10 13:21:15;;;;;;;2.45;2.25;;;;;;;;;;4977231;28;20208;-79
2021/10/10 13:23:43;;;;;;;2.10;1.90;;;;;;;;;;4977605;28;20565;-79
2021/10/10 13:26:11;;;;;;;2.08;1.98;;;;;;;;;;4976775;28;20204;-79
2021/10/10 13:28:38;;;;;;;1.95;1.83;;;;;;;;;;4976897;28;20220;-79
2021/10/10 13:31:06;;;;;;;2.40;2.00;;;;;;;;;;4976656;28;20204;-80
2021/10/10 13:33:35;;;;;;;1.70;1.60;;;;;;;;;;4976511;28;20758;-79
2021/10/10 13:36:07;;;;;;;3.28;2.97;;;;;;;;;;4976742;28;20192;-80
2021/10/10 13:38:36;;;;;;;4.25;2.65;;;;;;;;;;4976318;28;20228;-80
2021/10/10 13:41:04;;;;;;;2.45;2.25;;;;;;;;;;4976614;28;20632;-79
2021/10/10 13:43:32;;;;;;;2.33;2.13;;;;;;;;;;4976875;28;20566;-80
2021/10/10 13:46:00;;;;;;;2.20;2.03;;;;;;;;;;4976899;28;20196;-80
2021/10/10 13:48:29;;;;;;;1.77;1.67;;;;;;;;;;4976725;28;20227;-80
2021/10/10 13:50:58;;;;;;;1.90;1.80;;;;;;;;;;4976416;28;20203;-81
2021/10/10 13:53:28;;;;;;;2.10;2.00;;;;;;;;;;4976923;28;20207;-79
2021/10/10 13:55:56;;;;;;;1.95;1.85;;;;;;;;;;4976686;28;20212;-79
2021/10/10 13:58:24;;;;;;;1.73;1.63;;;;;;;;;;4976415;28;20583;-79
2021/10/10 14:00:54;;;;;;;1.63;1.48;;;;;;;;;;4976440;28;20191;-79
2021/10/10 14:03:22;;;;;;;1.92;1.83;;;;;;;;;;4976722;28;20193;-79
2021/10/10 14:05:52;;;;;;;2.08;1.90;;;;;;;;;;4977063;28;20209;-79
2021/10/10 14:08:21;;;;;;;1.83;1.73;;;;;;;;;;4976586;28;20252;-79
2021/10/10 14:10:52;;;;;;;1.88;1.70;;;;;;;;;;4976610;28;20220;-79
2021/10/10 14:13:20;;;;;;;2.55;2.10;;;;;;;;;;4976700;28;20192;-79
2021/10/10 14:15:49;;;;;;;1.92;1.52;;;;;;;;;;4976756;28;20192;-79
2021/10/10 14:18:17;;;;;;;1.58;1.48;;;;;;;;;;4976446;28;20228;-80
2021/10/10 14:20:46;;;;;;;2.00;1.90;;;;;;;;;;4976773;28;20583;-80
2021/10/10 14:23:14;;;;;;;2.60;2.38;;;;;;;;;;4976779;28;20212;-79
2021/10/10 14:25:43;;;;;;;2.22;2.03;;;;;;;;;;4976384;28;20573;-79
2021/10/10 14:28:12;;;;;;;2.60;2.40;;;;;;;;;;4976216;28;20738;-79
2021/10/10 14:30:40;;;;;;;2.10;1.90;;;;;;;;;;4976392;28;20188;-80
2021/10/10 14:33:08;;;;;;;1.50;1.40;;;;;;;;;;4976447;28;20207;-80
2021/10/10 14:35:36;;;;;;;1.52;1.42;;;;;;;;;;4976973;28;20208;-81
2021/10/10 14:38:04;;;;;;;1.90;1.80;;;;;;;;;;4976476;28;20255;-80
2021/10/10 14:40:33;;;;;;;1.90;1.80;;;;;;;;;;4976492;28;20216;-79
2021/10/10 14:43:03;;;;;;;1.50;1.40;;;;;;;;;;4976167;28;20291;-79
2021/10/10 14:45:33;;;;;;;1.45;1.20;;;;;;;;;;4976084;28;20188;-78
2021/10/10 14:48:08;;;;;;;2.08;1.85;;;;;;;;;;4975973;28;20228;-79
2021/10/10 14:50:39;;;;;;;2.28;1.50;;;;;;;;;;4976141;28;20692;-79
2021/10/10 14:53:09;;;;;;;1.90;1.80;;;;;;;;;;4975982;28;20236;-79
2021/10/10 14:55:37;;;;;;;2.72;2.28;;;;;;;;;;4976250;28;20189;-79
2021/10/10 14:58:05;;;;;;;1.42;1.33;;;;;;;;;;4975370;28;20232;-79